Time;durP1;ratioP1;P1;durP2;ratioP2;P2;SDS_P1;SDS_P2;PMS_P1;PMS_P2;Temp;Humidity;BMP_temperature;BMP_pressure;BME280_temperature;BME280_humidity;BME280_pressure;Samples;Min_cycle;Max_cycle;Signal;HPM_P1;HPM_P2
2023/07/06 00:01:45;;;;;;;14.02;5.60;;;22.10;74.60;;;;;;5027542;28;20034;-54
2023/07/06 00:04:11;;;;;;;19.70;6.05;;;22.10;74.50;;;;;;5027460;28;20026;-54
2023/07/06 00:06:37;;;;;;;14.80;5.47;;;22.10;74.60;;;;;;5028067;28;20084;-54
2023/07/06 00:09:05;;;;;;;12.68;5.28;;;22.10;74.70;;;;;;5018498;28;20026;-54
2023/07/06 00:11:38;;;;;;;20.55;6.10;;;22.00;74.60;;;;;;5023182;28;20084;-54
2023/07/06 00:14:07;;;;;;;13.45;5.63;;;22.00;74.60;;;;;;5027560;28;20084;-54
2023/07/06 00:16:33;;;;;;;16.92;5.78;;;22.10;74.60;;;;;;5008238;28;20046;-54
2023/07/06 00:18:58;;;;;;;18.27;5.32;;;22.00;74.70;;;;;;5008182;28;20054;-54
2023/07/06 00:21:25;;;;;;;12.43;5.63;;;22.00;74.70;;;;;;4991710;28;20038;-54
2023/07/06 00:23:52;;;;;;;15.70;5.47;;;22.00;74.60;;;;;;5008073;28;20031;-54
2023/07/06 00:26:20;;;;;;;15.15;5.82;;;21.90;74.60;;;;;;5015453;28;20061;-54
2023/07/06 00:28:48;;;;;;;13.75;5.63;;;21.90;74.70;;;;;;5024851;28;20034;-54
2023/07/06 00:31:21;;;;;;;15.77;5.70;;;21.90;74.70;;;;;;5007765;28;20501;-53
2023/07/06 00:33:48;;;;;;;15.13;5.00;;;21.90;74.70;;;;;;5028338;28;20033;-54
2023/07/06 00:36:15;;;;;;;11.65;4.80;;;21.90;74.80;;;;;;5026883;28;20065;-54
2023/07/06 00:38:40;;;;;;;12.02;5.55;;;21.80;74.70;;;;;;5026449;28;20398;-54
2023/07/06 00:41:07;;;;;;;9.70;4.50;;;21.80;74.70;;;;;;5025426;28;20042;-54
2023/07/06 00:43:49;;;;;;;13.45;4.97;;;21.80;74.70;;;;;;5009768;28;20053;-54
2023/07/06 00:46:15;;;;;;;13.65;5.05;;;21.80;74.80;;;;;;5010547;28;20033;-54
2023/07/06 00:48:44;;;;;;;12.32;5.07;;;21.70;74.80;;;;;;5027273;28;20026;-54
2023/07/06 00:51:24;;;;;;;14.27;4.93;;;21.70;74.80;;;;;;5007697;28;20038;-54
2023/07/06 00:53:51;;;;;;;11.90;4.93;;;21.80;74.80;;;;;;4991762;28;20029;-54
2023/07/06 00:56:23;;;;;;;14.32;4.80;;;21.70;74.70;;;;;;5003987;28;20072;-54
2023/07/06 00:58:49;;;;;;;13.32;4.90;;;21.70;74.70;;;;;;5014870;28;20457;-54
2023/07/06 01:01:16;;;;;;;10.30;4.88;;;21.70;74.70;;;;;;5006432;28;20030;-54
2023/07/06 01:03:44;;;;;;;9.23;4.70;;;21.70;74.60;;;;;;5008034;28;20494;-54
2023/07/06 01:06:13;;;;;;;9.63;4.88;;;21.70;74.70;;;;;;5009021;28;20036;-54
2023/07/06 01:08:39;;;;;;;13.07;5.13;;;21.60;74.70;;;;;;4991400;28;20506;-54
2023/07/06 01:11:05;;;;;;;10.48;4.80;;;21.60;74.80;;;;;;5023355;28;20052;-54
2023/07/06 01:13:32;;;;;;;13.60;4.45;;;21.60;74.70;;;;;;5025980;28;20064;-54
2023/07/06 01:16:12;;;;;;;11.63;4.72;;;21.50;74.80;;;;;;5012777;28;20097;-54
2023/07/06 01:18:44;;;;;;;11.07;4.60;;;21.50;74.70;;;;;;5006939;28;20068;-54
2023/07/06 01:21:16;;;;;;;11.07;4.15;;;21.50;74.80;;;;;;5026400;28;20041;-54
2023/07/06 01:23:58;;;;;;;9.40;4.75;;;21.50;74.80;;;;;;5024806;28;20080;-54
2023/07/06 01:26:34;;;;;;;7.47;3.90;;;21.50;74.80;;;;;;5020087;28;20030;-54
2023/07/06 01:29:12;;;;;;;8.55;4.15;;;21.40;74.80;;;;;;5015881;28;20037;-54
2023/07/06 01:31:52;;;;;;;9.07;4.53;;;21.40;74.80;;;;;;5026937;28;20045;-54
2023/07/06 01:34:33;;;;;;;6.75;4.07;;;21.40;74.80;;;;;;5021098;28;20026;-54
2023/07/06 01:37:06;;;;;;;7.60;4.10;;;21.40;75.00;;;;;;5018415;28;20045;-54
2023/07/06 01:39:32;;;;;;;6.70;4.47;;;21.40;74.90;;;;;;5010900;28;20042;-54
2023/07/06 01:42:11;;;;;;;8.57;4.10;;;21.40;75.00;;;;;;4991386;28;20038;-54
2023/07/06 01:44:37;;;;;;;9.98;4.25;;;21.40;75.10;;;;;;5026604;28;20153;-54
2023/07/06 01:47:03;;;;;;;8.00;4.22;;;21.40;75.00;;;;;;5009627;28;20354;-54
2023/07/06 01:49:29;;;;;;;9.45;5.22;;;21.30;74.90;;;;;;5025639;28;20045;-54
2023/07/06 01:52:12;;;;;;;9.43;4.03;;;21.30;75.00;;;;;;5025834;28;20041;-54
2023/07/06 01:54:41;;;;;;;6.65;4.57;;;21.30;75.10;;;;;;5025766;28;20041;-54
2023/07/06 01:57:13;;;;;;;5.85;4.03;;;21.20;75.10;;;;;;5021133;28;20031;-53
2023/07/06 01:59:38;;;;;;;6.93;4.60;;;21.20;75.20;;;;;;4991201;28;20027;-54
2023/07/06 02:02:07;;;;;;;8.18;3.85;;;21.20;75.20;;;;;;5007315;28;20093;-54
2023/07/06 02:04:33;;;;;;;6.35;4.30;;;21.20;75.30;;;;;;5008928;28;20042;-54
2023/07/06 02:07:00;;;;;;;11.13;4.70;;;21.10;75.30;;;;;;5009566;28;20041;-54
2023/07/06 02:09:26;;;;;;;8.45;4.35;;;21.10;75.40;;;;;;5025314;28;20086;-54
2023/07/06 02:11:52;;;;;;;6.90;4.13;;;21.10;75.40;;;;;;5025992;28;20053;-54
2023/07/06 02:14:19;;;;;;;7.45;4.25;;;21.10;75.50;;;;;;5026049;28;20033;-54
2023/07/06 02:16:44;;;;;;;12.38;4.68;;;21.10;75.50;;;;;;5024079;28;20038;-54
2023/07/06 02:19:10;;;;;;;8.57;4.78;;;21.10;75.50;;;;;;5020455;28;20045;-54
2023/07/06 02:21:36;;;;;;;9.93;4.35;;;21.00;75.50;;;;;;5009493;28;20037;-54
2023/07/06 02:24:02;;;;;;;9.65;4.40;;;21.10;75.50;;;;;;5026626;28;20124;-54
2023/07/06 02:26:27;;;;;;;8.88;4.75;;;21.00;75.40;;;;;;5025216;28;20053;-54
2023/07/06 02:28:53;;;;;;;8.45;4.70;;;21.00;75.50;;;;;;5021383;28;20042;-54
2023/07/06 02:31:18;;;;;;;6.85;4.40;;;21.00;75.50;;;;;;5026001;28;20466;-54
2023/07/06 02:33:44;;;;;;;5.75;4.45;;;21.00;75.50;;;;;;5016413;28;20037;-54
2023/07/06 02:36:11;;;;;;;6.03;4.43;;;21.00;75.50;;;;;;5016891;28;20038;-54
2023/07/06 02:38:37;;;;;;;7.53;4.93;;;21.00;75.70;;;;;;5025133;28;20030;-53
2023/07/06 02:41:05;;;;;;;7.18;5.38;;;20.90;76.30;;;;;;5005514;28;20026;-54
2023/07/06 02:43:31;;;;;;;6.85;4.80;;;21.00;75.70;;;;;;5007346;28;20030;-54
2023/07/06 02:45:57;;;;;;;8.48;4.68;;;20.90;75.70;;;;;;5022841;28;20030;-54
2023/07/06 02:48:24;;;;;;;6.55;4.60;;;20.90;75.70;;;;;;5025880;28;20025;-54
2023/07/06 02:50:50;;;;;;;8.63;4.60;;;20.90;75.70;;;;;;5016755;28;20094;-52
2023/07/06 02:53:15;;;;;;;9.30;4.55;;;20.90;75.70;;;;;;4989657;28;20541;-54
2023/07/06 02:55:41;;;;;;;7.60;5.20;;;20.90;75.70;;;;;;5002883;28;20040;-54
2023/07/06 02:58:06;;;;;;;9.40;4.85;;;20.80;75.70;;;;;;5025099;28;20041;-54
2023/07/06 03:00:32;;;;;;;9.60;5.25;;;20.80;75.80;;;;;;5024305;28;20405;-54
2023/07/06 03:02:58;;;;;;;8.52;4.90;;;20.80;75.90;;;;;;5023126;28;20478;-54
2023/07/06 03:05:24;;;;;;;6.97;4.68;;;20.80;76.00;;;;;;5024510;28;20284;-54
2023/07/06 03:07:52;;;;;;;15.30;5.53;;;20.80;76.10;;;;;;5025025;28;20026;-54
2023/07/06 03:10:19;;;;;;;6.80;4.63;;;20.80;76.20;;;;;;5024407;28;20030;-54
2023/07/06 03:12:45;;;;;;;7.47;5.30;;;20.80;76.30;;;;;;5024297;28;20026;-54
2023/07/06 03:15:11;;;;;;;6.35;4.97;;;20.80;76.30;;;;;;5021816;28;20505;-54
2023/07/06 03:17:37;;;;;;;9.88;5.10;;;20.70;76.30;;;;;;5009718;28;20034;-54
2023/07/06 03:20:15;;;;;;;7.05;5.10;;;20.80;76.40;;;;;;5014569;28;20116;-54
2023/07/06 03:22:48;;;;;;;5.97;4.78;;;20.80;76.50;;;;;;5019401;28;20037;-54
2023/07/06 03:25:15;;;;;;;10.60;5.63;;;20.70;76.50;;;;;;5025486;28;20034;-54
2023/07/06 03:27:41;;;;;;;6.43;4.80;;;20.70;76.60;;;;;;5025872;28;20536;-54
2023/07/06 03:30:09;;;;;;;9.18;6.18;;;20.80;76.60;;;;;;5007867;28;20041;-54
2023/07/06 03:32:37;;;;;;;9.70;6.80;;;20.70;76.60;;;;;;5028704;28;20033;-54
2023/07/06 03:35:04;;;;;;;7.85;7.03;;;20.70;76.60;;;;;;5017636;28;20035;-54
2023/07/06 03:37:30;;;;;;;23.35;7.72;;;20.70;76.60;;;;;;5011308;28;20026;-54
2023/07/06 03:39:55;;;;;;;35.85;9.55;;;20.70;76.60;;;;;;5028920;28;20040;-54
2023/07/06 03:42:21;;;;;;;36.83;9.07;;;20.70;76.70;;;;;;5008442;28;20050;-54
2023/07/06 03:44:46;;;;;;;86.68;14.93;;;20.70;76.70;;;;;;5017748;28;20382;-54
2023/07/06 03:47:12;;;;;;;57.88;11.60;;;20.70;76.90;;;;;;5010683;28;20111;-54
2023/07/06 03:49:38;;;;;;;39.08;9.75;;;20.70;77.00;;;;;;5029079;28;20030;-54
2023/07/06 03:52:04;;;;;;;47.00;9.80;;;20.70;77.00;;;;;;5026535;28;20026;-54
2023/07/06 03:54:31;;;;;;;60.50;10.15;;;20.70;77.10;;;;;;5028754;28;20029;-54
2023/07/06 03:56:57;;;;;;;54.88;10.05;;;20.70;77.40;;;;;;5027547;28;20030;-54
2023/07/06 03:59:23;;;;;;;48.50;10.82;;;20.60;77.60;;;;;;5027628;28;20127;-54
2023/07/06 04:01:48;;;;;;;50.53;9.95;;;20.60;77.30;;;;;;5028756;28;20474;-53
2023/07/06 04:04:16;;;;;;;36.65;10.45;;;20.60;77.20;;;;;;5024606;28;20709;-54
2023/07/06 04:06:41;;;;;;;36.15;9.60;;;20.70;77.30;;;;;;5010837;28;20034;-54
2023/07/06 04:09:10;;;;;;;44.10;10.20;;;20.60;77.30;;;;;;5024083;28;20030;-54
2023/07/06 04:11:36;;;;;;;43.28;9.32;;;20.60;77.40;;;;;;5014929;28;20094;-54
2023/07/06 04:14:03;;;;;;;43.13;9.27;;;20.60;77.30;;;;;;5028637;28;20030;-54
2023/07/06 04:16:28;;;;;;;33.38;8.82;;;20.60;77.30;;;;;;5028201;28;20046;-54
2023/07/06 04:18:55;;;;;;;32.25;9.07;;;20.60;77.40;;;;;;5010772;28;20041;-54
2023/07/06 04:21:22;;;;;;;41.40;8.98;;;20.60;77.40;;;;;;5026941;28;20038;-54
2023/07/06 04:23:47;;;;;;;39.03;8.80;;;20.60;77.40;;;;;;5020015;28;20106;-54
2023/07/06 04:26:14;;;;;;;29.60;8.55;;;20.60;78.00;;;;;;5019569;28;20045;-54
2023/07/06 04:28:40;;;;;;;32.10;8.80;;;20.60;77.30;;;;;;5023268;28;20030;-54
2023/07/06 04:31:06;;;;;;;28.80;8.43;;;20.60;77.20;;;;;;5018884;28;20030;-54
2023/07/06 04:33:31;;;;;;;32.55;8.43;;;20.60;77.40;;;;;;5027499;28;20036;-54
2023/07/06 04:35:57;;;;;;;32.35;8.85;;;20.60;77.50;;;;;;5006649;28;20038;-53
2023/07/06 04:38:26;;;;;;;31.98;8.75;;;20.60;77.60;;;;;;4996467;28;20470;-54
2023/07/06 04:40:52;;;;;;;23.50;8.73;;;20.60;77.60;;;;;;5007435;28;20039;-54
2023/07/06 04:43:17;;;;;;;18.55;7.20;;;20.60;78.30;;;;;;5009960;28;20069;-54
2023/07/06 04:45:44;;;;;;;28.55;8.00;;;20.60;77.70;;;;;;5013210;28;20407;-54
2023/07/06 04:48:10;;;;;;;25.55;8.20;;;20.60;77.80;;;;;;5006962;28;20036;-54
2023/07/06 04:50:37;;;;;;;32.58;7.95;;;20.60;77.90;;;;;;5018521;28;20054;-54
2023/07/06 04:53:03;;;;;;;30.40;7.78;;;20.60;77.90;;;;;;5015124;28;20038;-54
2023/07/06 04:55:30;;;;;;;22.02;7.47;;;20.60;78.10;;;;;;5007969;28;20036;-54
2023/07/06 04:57:57;;;;;;;34.42;8.68;;;20.60;78.10;;;;;;5026235;28;20080;-54
2023/07/06 05:00:24;;;;;;;30.92;8.50;;;20.60;78.30;;;;;;5023253;28;20040;-53
2023/07/06 05:02:55;;;;;;;57.05;9.88;;;20.60;78.60;;;;;;5024893;28;20033;-54
2023/07/06 05:05:22;;;;;;;58.75;9.57;;;20.60;78.70;;;;;;5014378;28;20090;-54
2023/07/06 05:07:48;;;;;;;44.30;9.40;;;20.60;78.90;;;;;;5014645;28;20098;-54
2023/07/06 05:10:14;;;;;;;39.70;8.05;;;20.60;79.20;;;;;;5019438;28;20033;-54
2023/07/06 05:12:40;;;;;;;42.45;8.63;;;20.60;79.10;;;;;;5009911;28;20109;-54
2023/07/06 05:15:06;;;;;;;37.60;7.82;;;20.60;79.20;;;;;;5017251;28;20022;-54
2023/07/06 05:17:32;;;;;;;37.65;8.45;;;20.60;79.10;;;;;;5026424;28;20073;-54
2023/07/06 05:19:58;;;;;;;29.92;8.95;;;20.60;79.10;;;;;;5025321;28;20030;-53
2023/07/06 05:22:25;;;;;;;39.53;8.90;;;20.60;78.90;;;;;;5026461;28;20021;-54
2023/07/06 05:24:50;;;;;;;29.20;8.57;;;20.60;78.70;;;;;;5022129;28;20041;-54
2023/07/06 05:27:16;;;;;;;36.83;8.65;;;20.60;78.70;;;;;;5026013;28;20034;-54
2023/07/06 05:29:42;;;;;;;41.63;9.73;;;20.60;78.80;;;;;;5021436;28;20449;-54
2023/07/06 05:32:08;;;;;;;40.15;9.50;;;20.60;78.90;;;;;;5027596;28;20093;-54
2023/07/06 05:34:34;;;;;;;45.88;9.13;;;20.60;78.90;;;;;;5007111;28;20019;-52
2023/07/06 05:37:00;;;;;;;32.25;9.13;;;20.60;78.90;;;;;;5009062;28;20079;-54
2023/07/06 05:39:25;;;;;;;45.83;8.45;;;20.50;79.00;;;;;;5005847;28;20042;-54
2023/07/06 05:41:51;;;;;;;44.05;9.90;;;20.50;79.00;;;;;;5017205;28;20065;-54
2023/07/06 05:44:16;;;;;;;45.25;9.68;;;20.60;79.10;;;;;;5025524;28;20441;-54
2023/07/06 05:46:42;;;;;;;44.38;9.05;;;20.60;79.20;;;;;;5025723;28;20065;-54
2023/07/06 05:49:07;;;;;;;39.50;9.60;;;20.60;79.80;;;;;;5025404;28;20022;-54
2023/07/06 05:51:33;;;;;;;32.17;8.73;;;20.60;79.90;;;;;;5024871;28;20033;-54
2023/07/06 05:53:58;;;;;;;37.88;8.40;;;20.60;79.90;;;;;;5024714;28;20034;-53
2023/07/06 05:56:24;;;;;;;41.55;8.82;;;20.60;80.00;;;;;;5025198;28;20041;-54
2023/07/06 05:58:51;;;;;;;31.20;8.60;;;20.50;79.90;;;;;;5008814;28;20034;-54
2023/07/06 06:01:18;;;;;;;33.17;8.63;;;20.60;80.00;;;;;;5024777;28;20106;-54
2023/07/06 06:03:45;;;;;;;32.70;8.77;;;20.50;80.70;;;;;;5025114;28;20045;-54
2023/07/06 06:06:10;;;;;;;30.83;9.02;;;20.60;80.20;;;;;;5014385;28;20035;-54
2023/07/06 06:08:36;;;;;;;37.63;8.80;;;20.60;80.30;;;;;;5003427;28;20136;-54
2023/07/06 06:11:02;;;;;;;34.08;8.80;;;20.60;80.40;;;;;;5012850;28;20041;-54
2023/07/06 06:13:30;;;;;;;33.47;8.45;;;20.60;80.40;;;;;;5003660;28;20094;-54
2023/07/06 06:15:55;;;;;;;49.55;9.32;;;20.60;80.30;;;;;;5014046;28;20034;-54
2023/07/06 06:18:21;;;;;;;41.20;8.38;;;20.60;79.90;;;;;;5022548;28;20029;-54
2023/07/06 06:20:48;;;;;;;38.78;8.15;;;20.60;80.10;;;;;;5021874;28;20048;-54
2023/07/06 06:23:15;;;;;;;36.67;9.00;;;20.60;80.60;;;;;;5023270;28;20034;-54
2023/07/06 06:25:41;;;;;;;29.20;7.63;;;20.60;80.50;;;;;;5021911;28;20029;-54
2023/07/06 06:28:09;;;;;;;29.33;7.82;;;20.60;80.70;;;;;;5023055;28;20022;-53
2023/07/06 06:30:38;;;;;;;36.70;8.07;;;20.60;80.90;;;;;;5006320;28;20080;-53
2023/07/06 06:33:04;;;;;;;42.47;8.40;;;20.60;81.00;;;;;;5023369;28;20026;-54
2023/07/06 06:35:32;;;;;;;31.02;7.90;;;20.60;80.60;;;;;;4998941;28;20398;-53
2023/07/06 06:37:57;;;;;;;27.98;8.30;;;20.60;80.40;;;;;;4998856;28;20036;-53
2023/07/06 06:40:23;;;;;;;25.42;7.55;;;20.60;80.50;;;;;;5008418;28;20035;-53
2023/07/06 06:42:49;;;;;;;42.13;8.40;;;20.70;80.50;;;;;;5023994;28;20041;-54
2023/07/06 06:45:15;;;;;;;29.55;7.43;;;20.70;80.50;;;;;;5007626;28;20484;-54
2023/07/06 06:47:41;;;;;;;24.85;7.32;;;20.70;80.80;;;;;;5024789;28;20500;-53
2023/07/06 06:50:09;;;;;;;29.98;8.55;;;20.70;80.90;;;;;;5024314;28;20117;-53
2023/07/06 06:52:35;;;;;;;26.70;8.05;;;20.70;81.00;;;;;;5026113;28;20041;-54
2023/07/06 06:55:01;;;;;;;43.60;8.25;;;20.70;81.30;;;;;;5020000;28;20040;-53
2023/07/06 06:57:27;;;;;;;37.47;8.23;;;20.70;81.90;;;;;;5016072;28;20050;-53
2023/07/06 06:59:53;;;;;;;35.65;8.48;;;20.70;81.30;;;;;;5012936;28;20022;-53
2023/07/06 07:02:19;;;;;;;31.60;8.80;;;20.70;81.90;;;;;;5023288;28;20042;-54
2023/07/06 07:04:45;;;;;;;41.40;8.90;;;20.70;81.50;;;;;;5009483;28;20053;-53
2023/07/06 07:07:10;;;;;;;49.38;8.93;;;20.80;81.60;;;;;;5039042;28;20030;-54
2023/07/06 07:09:36;;;;;;;48.28;9.73;;;20.80;81.40;;;;;;5028892;28;20486;-54
2023/07/06 07:12:02;;;;;;;34.72;9.15;;;20.80;81.60;;;;;;5021050;28;20030;-53
2023/07/06 07:14:29;;;;;;;42.08;9.43;;;20.80;81.70;;;;;;5024386;28;20022;-54
2023/07/06 07:16:55;;;;;;;41.42;9.20;;;20.70;81.90;;;;;;5026783;28;20049;-53
2023/07/06 07:19:21;;;;;;;40.47;8.95;;;20.80;82.40;;;;;;5011194;28;20040;-54
2023/07/06 07:21:47;;;;;;;65.65;10.98;;;20.80;82.90;;;;;;5016088;28;20049;-53
2023/07/06 07:24:13;;;;;;;68.57;12.15;;;20.70;84.10;;;;;;5027015;28;20030;-53
2023/07/06 07:26:38;;;;;;;46.15;10.15;;;20.70;84.40;;;;;;5027338;28;20037;-54
2023/07/06 07:29:04;;;;;;;41.85;8.95;;;20.70;84.80;;;;;;5022913;28;20041;-54
2023/07/06 07:31:29;;;;;;;53.05;10.45;;;20.70;84.70;;;;;;5028575;28;20482;-54
2023/07/06 07:33:55;;;;;;;37.63;8.65;;;20.70;85.00;;;;;;5017861;28;20034;-54
2023/07/06 07:36:21;;;;;;;35.08;8.93;;;20.70;84.90;;;;;;5013342;28;20438;-54
2023/07/06 07:38:47;;;;;;;54.95;9.70;;;20.70;85.00;;;;;;5027664;28;20113;-54
2023/07/06 07:41:16;;;;;;;43.35;7.97;;;20.70;85.40;;;;;;5016771;28;20026;-53
2023/07/06 07:43:42;;;;;;;29.02;7.00;;;20.70;85.00;;;;;;5022730;28;20059;-53
2023/07/06 07:46:10;;;;;;;27.08;7.93;;;20.80;85.50;;;;;;5018424;28;20026;-53
2023/07/06 07:48:38;;;;;;;46.80;8.00;;;20.80;84.80;;;;;;5015744;28;20026;-53
2023/07/06 07:51:06;;;;;;;38.17;8.02;;;20.80;85.50;;;;;;5030775;28;20026;-53
2023/07/06 07:53:33;;;;;;;23.13;7.28;;;20.70;85.50;;;;;;5039220;28;20477;-54
2023/07/06 07:55:59;;;;;;;31.95;7.18;;;20.80;85.50;;;;;;5027935;28;20039;-53
2023/07/06 07:58:26;;;;;;;18.77;6.97;;;20.80;85.40;;;;;;5028791;28;20025;-54
2023/07/06 08:00:57;;;;;;;18.30;6.88;;;20.70;84.80;;;;;;4996563;28;20030;-54
2023/07/06 08:03:23;;;;;;;23.77;7.05;;;20.70;85.00;;;;;;5017618;28;20060;-53
2023/07/06 08:05:52;;;;;;;25.80;7.47;;;20.80;85.00;;;;;;5018312;28;20022;-54
2023/07/06 08:08:17;;;;;;;34.42;7.32;;;20.80;84.80;;;;;;5023437;28;20034;-54
2023/07/06 08:10:43;;;;;;;33.78;7.20;;;20.80;84.90;;;;;;5025161;28;20034;-53
2023/07/06 08:13:09;;;;;;;22.83;7.07;;;20.80;84.80;;;;;;5023565;28;20053;-53
2023/07/06 08:15:37;;;;;;;34.85;7.72;;;20.80;84.70;;;;;;5018117;28;20030;-53
2023/07/06 08:18:03;;;;;;;31.50;7.47;;;20.80;84.90;;;;;;4994432;28;20258;-53
2023/07/06 08:20:29;;;;;;;44.53;8.73;;;20.80;84.80;;;;;;5020737;28;20474;-54
2023/07/06 08:22:59;;;;;;;33.58;8.65;;;20.80;84.90;;;;;;5013273;28;20037;-53
2023/07/06 08:25:27;;;;;;;181.15;21.80;;;20.80;84.60;;;;;;5002497;28;20026;-53
2023/07/06 08:27:53;;;;;;;35.97;8.82;;;20.90;84.40;;;;;;5015453;28;20090;-53
2023/07/06 08:30:21;;;;;;;37.67;8.85;;;20.90;84.60;;;;;;5034723;28;20038;-53
2023/07/06 08:32:50;;;;;;;33.55;8.88;;;20.90;83.90;;;;;;5009809;28;20030;-52
2023/07/06 08:35:17;;;;;;;39.83;9.02;;;20.90;83.60;;;;;;4991542;28;20133;-53
2023/07/06 08:37:43;;;;;;;30.15;8.13;;;20.90;83.40;;;;;;5012562;28;20039;-53
2023/07/06 08:40:17;;;;;;;38.35;8.50;;;20.90;83.10;;;;;;5006464;28;20054;-56
2023/07/06 08:42:46;;;;;;;38.58;8.02;;;20.90;83.00;;;;;;5006080;28;20344;-57
2023/07/06 08:45:38;;;;;;;31.83;8.68;;;20.90;82.90;;;;;;5006351;28;20120;-57
2023/07/06 08:48:04;;;;;;;38.50;9.52;;;20.90;82.60;;;;;;5013260;28;20030;-57
2023/07/06 08:50:31;;;;;;;37.97;9.07;;;20.90;82.30;;;;;;5024605;28;20061;-57
2023/07/06 08:52:57;;;;;;;54.72;9.23;;;21.00;81.80;;;;;;5021081;28;20086;-57
2023/07/06 08:55:24;;;;;;;54.53;10.60;;;21.00;81.60;;;;;;5020193;28;20054;-57
2023/07/06 08:57:50;;;;;;;109.68;14.93;;;21.00;81.50;;;;;;5022909;28;20026;-56
2023/07/06 09:00:22;;;;;;;83.07;12.77;;;21.00;81.40;;;;;;5026206;28;20030;-55
2023/07/06 09:03:23;;;;;;;70.30;12.65;;;21.00;81.40;;;;;;5011058;28;20042;-57
2023/07/06 09:05:48;;;;;;;141.20;19.85;;;21.00;80.80;;;;;;4978094;28;20038;-57
2023/07/06 09:08:17;;;;;;;101.18;16.92;;;21.00;80.50;;;;;;5025848;28;20061;-57
2023/07/06 09:10:42;;;;;;;74.60;13.70;;;21.10;80.30;;;;;;5021991;28;20026;-57
2023/07/06 09:13:24;;;;;;;176.30;21.33;;;21.10;80.10;;;;;;5024125;28;20053;-57
2023/07/06 09:16:00;;;;;;;74.18;11.57;;;21.10;79.40;;;;;;5017895;28;20046;-57
2023/07/06 09:18:26;;;;;;;31.50;7.60;;;21.10;78.30;;;;;;5008075;28;20034;-57
2023/07/06 09:20:52;;;;;;;34.78;7.95;;;21.10;76.30;;;;;;5018274;28;20037;-57
2023/07/06 09:23:17;;;;;;;42.40;9.70;;;21.10;76.20;;;;;;5024901;28;20053;-57
2023/07/06 09:25:45;;;;;;;67.03;10.48;;;21.20;76.30;;;;;;5026136;28;20104;-57
2023/07/06 09:28:17;;;;;;;58.90;9.90;;;21.20;76.80;;;;;;5019090;28;20027;-57
2023/07/06 09:30:43;;;;;;;66.57;10.15;;;21.20;76.70;;;;;;5021835;28;20030;-56
2023/07/06 09:33:14;;;;;;;69.30;11.45;;;21.30;76.50;;;;;;5018540;28;20037;-57
2023/07/06 09:35:40;;;;;;;77.68;12.57;;;21.30;76.10;;;;;;5019059;28;20551;-57
2023/07/06 09:38:06;;;;;;;76.82;12.82;;;21.30;76.10;;;;;;5001893;28;20030;-56
2023/07/06 09:40:32;;;;;;;76.10;13.00;;;21.40;76.10;;;;;;5012284;28;20038;-57
2023/07/06 09:42:57;;;;;;;84.63;13.43;;;21.40;75.70;;;;;;5021252;28;20030;-57
2023/07/06 09:45:30;;;;;;;69.28;11.88;;;21.40;76.10;;;;;;5023365;28;20098;-57
2023/07/06 09:48:11;;;;;;;48.15;9.68;;;21.50;75.40;;;;;;5022163;28;20428;-54
2023/07/06 09:50:43;;;;;;;39.35;7.93;;;21.50;74.50;;;;;;5037941;28;20034;-53
2023/07/06 09:53:11;;;;;;;49.72;9.23;;;21.50;73.70;;;;;;5000003;28;20423;-53
2023/07/06 09:55:37;;;;;;;43.13;9.90;;;21.50;73.70;;;;;;5017735;28;20089;-53
2023/07/06 09:58:02;;;;;;;46.13;9.73;;;21.60;73.50;;;;;;5016901;28;20042;-53
2023/07/06 10:00:33;;;;;;;61.65;11.60;;;21.60;73.70;;;;;;5038584;28;20025;-53
2023/07/06 10:03:31;;;;;;;61.58;12.18;;;21.70;73.80;;;;;;5012990;28;20030;-53
2023/07/06 10:06:03;;;;;;;76.85;10.45;;;21.70;73.40;;;;;;5023666;28;20022;-53
2023/07/06 10:08:46;;;;;;;48.08;10.02;;;21.70;73.10;;;;;;5012714;28;20025;-53
2023/07/06 10:11:34;;;;;;;48.60;9.27;;;21.70;72.90;;;;;;5022435;28;20040;-53
2023/07/06 10:14:20;;;;;;;49.88;8.98;;;21.80;72.30;;;;;;5005139;28;20026;-53
2023/07/06 10:17:07;;;;;;;56.47;9.63;;;21.80;72.00;;;;;;5020019;28;20064;-53
2023/07/06 10:19:57;;;;;;;62.30;10.50;;;21.90;71.80;;;;;;5024467;28;20047;-53
2023/07/06 10:22:38;;;;;;;54.35;8.13;;;21.90;71.90;;;;;;4986153;28;20041;-53
2023/07/06 10:25:18;;;;;;;59.00;9.10;;;21.90;71.40;;;;;;5025263;28;20065;-52
2023/07/06 10:27:48;;;;;;;52.78;10.13;;;22.00;71.30;;;;;;5020826;28;20022;-52
2023/07/06 10:30:34;;;;;;;63.75;10.77;;;22.00;71.20;;;;;;5016331;28;20038;-52
2023/07/06 10:33:02;;;;;;;62.60;10.30;;;22.00;70.90;;;;;;5021199;28;20478;-52
2023/07/06 10:35:32;;;;;;;70.78;12.55;;;22.10;71.70;;;;;;5002120;28;20068;-52
2023/07/06 10:37:58;;;;;;;75.43;11.43;;;22.10;70.80;;;;;;5016853;28;20033;-52
2023/07/06 10:40:27;;;;;;;43.88;9.15;;;22.10;70.70;;;;;;5019119;28;20080;-52
2023/07/06 10:43:11;;;;;;;67.93;11.52;;;22.10;70.80;;;;;;5020162;28;20026;-52
2023/07/06 10:45:45;;;;;;;71.63;11.75;;;22.20;70.80;;;;;;5019745;28;20084;-52
2023/07/06 10:48:11;;;;;;;48.28;9.38;;;22.20;70.70;;;;;;5002326;28;20022;-52
2023/07/06 10:50:50;;;;;;;48.28;8.82;;;22.20;70.40;;;;;;5020708;28;20034;-52
2023/07/06 10:53:39;;;;;;;42.75;7.68;;;22.30;70.30;;;;;;5006789;28;20030;-52
2023/07/06 10:56:10;;;;;;;48.63;8.30;;;22.30;69.60;;;;;;5020241;28;20092;-52
2023/07/06 10:58:36;;;;;;;47.33;8.68;;;22.40;69.60;;;;;;5020375;28;20053;-52
2023/07/06 11:01:08;;;;;;;49.45;8.20;;;22.50;69.70;;;;;;5007949;28;20034;-52
2023/07/06 11:03:34;;;;;;;36.45;8.35;;;22.50;69.20;;;;;;5020314;28;20042;-52
2023/07/06 11:06:08;;;;;;;52.67;8.55;;;22.60;69.20;;;;;;5019411;28;20033;-52
2023/07/06 11:09:09;;;;;;;52.90;8.93;;;22.70;69.00;;;;;;5018704;28;20076;-52
2023/07/06 11:11:35;;;;;;;27.45;7.72;;;22.80;68.30;;;;;;5000482;28;20033;-51
2023/07/06 11:14:18;;;;;;;36.65;7.05;;;22.90;67.90;;;;;;5022442;28;20049;-52
2023/07/06 11:16:57;;;;;;;48.95;8.20;;;23.00;67.70;;;;;;5016416;28;20042;-51
2023/07/06 11:19:28;;;;;;;49.42;9.10;;;23.10;67.70;;;;;;5014098;28;20040;-52
2023/07/06 11:21:55;;;;;;;42.20;7.43;;;23.10;68.00;;;;;;5022409;28;20056;-52
2023/07/06 11:24:24;;;;;;;42.60;7.75;;;23.10;67.10;;;;;;4995795;28;20498;-52
2023/07/06 11:26:54;;;;;;;49.42;7.53;;;23.20;67.20;;;;;;5004889;28;20030;-52
2023/07/06 11:29:28;;;;;;;44.72;8.27;;;23.20;67.20;;;;;;5015899;28;20118;-51
2023/07/06 11:32:03;;;;;;;44.80;8.32;;;23.30;67.00;;;;;;5015618;28;20057;-52
2023/07/06 11:34:32;;;;;;;43.83;8.43;;;23.20;66.70;;;;;;5019727;28;20074;-55
2023/07/06 11:37:15;;;;;;;55.47;8.48;;;23.40;66.70;;;;;;5021648;28;20036;-52
2023/07/06 11:40:19;;;;;;;51.15;8.70;;;23.40;66.30;;;;;;5011836;28;20021;-52
2023/07/06 11:42:57;;;;;;;48.95;8.15;;;23.40;66.30;;;;;;4993191;28;20069;-52
2023/07/06 11:45:27;;;;;;;48.95;8.93;;;23.50;66.30;;;;;;5014700;28;20053;-51
2023/07/06 11:48:12;;;;;;;34.63;7.95;;;23.50;66.20;;;;;;5016160;28;20041;-52
2023/07/06 11:50:38;;;;;;;36.90;8.07;;;23.50;66.30;;;;;;5012759;28;20034;-52
2023/07/06 11:53:11;;;;;;;43.30;7.32;;;23.50;66.10;;;;;;5017023;28;20038;-52
2023/07/06 11:55:54;;;;;;;38.88;7.63;;;23.50;66.40;;;;;;5018658;28;20053;-52
2023/07/06 12:01:20;;;;;;;27.35;6.15;;;23.70;66.00;;;;;;5017327;28;20073;-51
2023/07/06 12:03:47;;;;;;;35.17;7.00;;;23.80;65.40;;;;;;5026150;28;20038;-52
2023/07/06 12:06:14;;;;;;;42.45;7.13;;;23.90;65.00;;;;;;5019991;28;20045;-52
2023/07/06 12:08:40;;;;;;;32.13;6.65;;;24.00;64.70;;;;;;5023142;28;20026;-52
2023/07/06 12:11:07;;;;;;;35.83;7.25;;;24.10;64.20;;;;;;5023814;28;20086;-52
2023/07/06 12:13:35;;;;;;;59.38;7.47;;;24.10;64.00;;;;;;5028050;28;20042;-52
2023/07/06 12:16:07;;;;;;;44.30;7.35;;;24.30;63.80;;;;;;5023418;28;20095;-52
2023/07/06 12:18:36;;;;;;;40.97;7.47;;;24.30;63.60;;;;;;5005926;28;20038;-52
2023/07/06 12:21:02;;;;;;;38.83;7.32;;;24.30;63.60;;;;;;5025961;28;20030;-52
2023/07/06 12:23:28;;;;;;;44.92;7.13;;;24.40;64.20;;;;;;5026280;28;20034;-52
2023/07/06 12:25:54;;;;;;;36.05;6.85;;;24.50;63.20;;;;;;5014466;28;20041;-51
2023/07/06 12:28:20;;;;;;;32.00;7.25;;;24.60;63.20;;;;;;5028366;28;20042;-52
2023/07/06 12:30:49;;;;;;;32.58;7.38;;;24.60;62.70;;;;;;4999851;28;20364;-51
2023/07/06 12:33:16;;;;;;;20.48;6.40;;;24.70;62.80;;;;;;5013865;28;20026;-51
2023/07/06 12:35:42;;;;;;;24.45;6.47;;;24.70;61.90;;;;;;5011149;28;20045;-51
2023/07/06 12:38:12;;;;;;;28.90;6.43;;;24.80;62.30;;;;;;5022744;28;20394;-52
2023/07/06 12:40:39;;;;;;;31.17;6.18;;;24.80;62.40;;;;;;5002578;28;20045;-52
2023/07/06 12:43:05;;;;;;;32.70;6.88;;;24.80;62.10;;;;;;5013527;28;20022;-51
2023/07/06 12:45:31;;;;;;;34.72;6.03;;;24.90;62.40;;;;;;5023862;28;20440;-51
2023/07/06 12:48:00;;;;;;;28.80;6.38;;;24.90;62.30;;;;;;5024197;28;20026;-51
2023/07/06 12:50:30;;;;;;;46.80;7.47;;;25.00;62.40;;;;;;5018997;28;20030;-51